Airfield :
LOGIN :

Register | Disclaimer

   EN    FR    IT 

 










Legend :    VFR   Marginal VFR   IFR   Intensive IFR   Very Intensive IFR
Visi :
Ceiling :
>= 8 km
>= 3000ft
5 to 8 km
1000 to 3000 ft
1500m to 5 km
500 to 1000 ft
800 to 1500m
200 to 500 ft
< 800m
< 200 ft
Symbols :   Thunderstorms  Fog  Heavy snow  Heavy precipitations  Wind > 20 kt
SIGMETs :     Misc.  Thunderstorms  Icing  Turbulence  Mountain Waves  Volcanic Ashes







- Airport Elevation : 13 ft
- IATA code : CEQ
- Download approach charts


LFMD - Cannes Mandelieu

CURRENT METAR :
  • 261230Z AUTO 24012KT 200V290 9999 FEW062 19/06 Q1017 NOSIG

EXPIRED METARs :
  • 261200Z AUTO 24011KT 190V270 9999 FEW056 18/07 Q1018 NOSIG
  • 261130Z AUTO 23012KT 200V270 CAVOK 18/08 Q1018 NOSIG
  • 261100Z AUTO 23013KT 200V270 CAVOK 17/06 Q1018 NOSIG
  • 261030Z AUTO 24012G22KT 210V290 CAVOK 16/05 Q1019 NOSIG
  • 261000Z AUTO 25012KT 220V290 CAVOK 16/05 Q1019 NOSIG

TAF TAF LFMD
Valid from the 26 at 09:00 until the 27 at 09:00 UTC


260800Z 2609/2709 22012KT CAVOK
BECMG 2618/2620 08012KT
ATIS : +33 4 93 48 73 23
No reported NOTAMs for that airfield.
1 SIGMET reported for the Marseille FIR (LFMM) :
 
Severe turbulence
LFMM SIGMET 1 VALID 261000/261400 LFPW
LFMM MARSEILLE FIR/UIR SEV TURB FCST WI N4415 E00700 - N4400 E00700 - N4330 E00900 - N4345 E00545 - N4500 E00245 - N4545 E00300 FL160/330 MOV S 10KT NC=



MET'MAP, your aeronautical weather chart ! - Copyright ORBIFLY December 2007 - Disclaimer

ORBIFLY MET'MAP TEAM :

Programming & Development : Alexandra Zaïnal
Concept & Development : Baudouin d'Aumeries
Co-Development & Prog : Marc-Olivier Méhu
Technical & hardware support : Manuel Goepfert

Contact : metmap@orbifly.com




SOURCES & CREDITS :

   NOAA